Terminal Aerodrome Forecast
Issued by NWS Pittsburgh, PA

Current Version | Previous Version | Graphics & Text | Print | Product List | Glossary On
Versions: 1 2 3 4 5 6 7 8 9 10 11 12 13 14 15 16 17 18 19 20 21 22 23 24 25 26 27 28 29 30 31 32
403
FTUS41 KPBZ 121644 CCA
TAFPIT
TAF COR
KPIT 121644Z 1217/1318 23012KT P6SM OVC080
     FM122100 25010G20KT P6SM -SN BKN035
     FM130100 28015G28KT 4SM -SHSN BKN015
      TEMPO 1302/1305 1SM -SHSN BKN007
     FM130700 30012G25KT P6SM VCSH BKN022=

USA.gov is the U.S. government's official web portal to all federal, state and local government web resources and services.